Etusivu
METAR-TAF:

METAR-TAF

Lentoasemat :

Yao, Japani

Leveyspiiri: 34-36N, Pituuspiiri: 135-36E, korkeus merenpinnasta: 10 m

Tämänhetkinen sää

Tämä raportti tehtiin 1 tunti ja 3 minuuttia sitten, kello 06.00 UTC
Tuuli 4 kn lännestä/lounaasta, vaihdellen kaakon ja lännen/luoteen välillä
Lämpötila 22°C
Kosteus 38%
Ilmanpaine 1016 hPa
Näkyvyys 10 km tai enemmän
Muutamia pilviä 3500 ft:n korkeudessa
Hajonneita pilviä 15000 ft:n korkeudessa

METAR: RJOY 130600Z 24004KT 140V290 9999 FEW035 BKN150 22/07 Q1016

Aika: 16:03 (07:03 UTC)


TAF: puuttuu

Säähavainnot ja -ennusteet yli 4000 lentoasemalta (METAR- ja TAF-raportit).

Käytössä olevat sääasemat on merkitty karttaan keltaisilla ja punaisilla pisteillä.

Aseta hiiri pisteen päälle nähdäksesi sääaseman nimen.

Klikkaa sitten nähdäksesi säähavainnot ja -ennusteet.

Kartan vaihtaminen: klikkaa mustalla rastilla varustettuja vihreitä pisteitä, niin voit zoomata sisään; viivalla varustettua vihreää pistettä, niin voit zoomata ulos tai vihreitä nuolia, niin pääset viereisille kartoille.


METAR-TAF: